Time;durP1;ratioP1;P1;durP2;ratioP2;P2;SDS_P1;SDS_P2;PMS_P1;PMS_P2;Temp;Humidity;BMP_temperature;BMP_pressure;BME280_temperature;BME280_humidity;BME280_pressure;Samples;Min_cycle;Max_cycle;Signal;HPM_P1;HPM_P2
2023/10/13 00:02:07;;;;;;;23.67;11.38;;;;;;;14.48;100.00;100652.03;6126050;28;20036;-71
2023/10/13 00:05:03;;;;;;;28.75;13.13;;;;;;;14.43;100.00;100649.88;6125500;28;20048;-71
2023/10/13 00:08:02;;;;;;;29.23;11.57;;;;;;;14.44;100.00;100645.38;6125372;28;20395;-73
2023/10/13 00:11:00;;;;;;;28.52;12.55;;;;;;;14.43;100.00;100643.72;6122362;28;20549;-73
2023/10/13 00:13:55;;;;;;;31.42;13.05;;;;;;;14.51;100.00;100651.72;6124557;28;20025;-73
2023/10/13 00:17:07;;;;;;;28.10;13.57;;;;;;;14.50;100.00;100644.69;6125077;28;20498;-71
2023/10/13 00:20:11;;;;;;;26.60;11.80;;;;;;;14.50;100.00;100644.69;6124602;28;20064;-69
2023/10/13 00:23:06;;;;;;;33.10;12.68;;;;;;;14.52;100.00;100643.50;6130862;28;20111;-70
2023/10/13 00:26:03;;;;;;;35.50;14.20;;;;;;;14.54;100.00;100640.69;6125132;28;20387;-69
2023/10/13 00:32:02;;;;;;;36.58;14.70;;;;;;;14.55;100.00;100639.66;6124928;28;20115;-68
2023/10/13 00:34:57;;;;;;;28.33;14.75;;;;;;;14.56;100.00;100630.66;6125169;28;20060;-68
2023/10/13 00:37:56;;;;;;;30.33;14.00;;;;;;;14.53;100.00;100623.00;6123744;28;20143;-68
2023/10/13 00:40:52;;;;;;;32.00;14.02;;;;;;;14.49;100.00;100611.84;6124496;28;20027;-69
2023/10/13 00:47:02;;;;;;;27.33;13.07;;;;;;;14.54;100.00;100616.66;6124144;28;20074;-68
2023/10/13 00:49:57;;;;;;;33.30;13.75;;;;;;;14.61;100.00;100620.28;6123470;28;20403;-68
2023/10/13 00:52:53;;;;;;;31.08;13.25;;;;;;;14.60;100.00;100623.97;6106575;28;20439;-68
2023/10/13 00:55:48;;;;;;;22.85;10.32;;;;;;;14.65;100.00;100621.59;6111088;28;20032;-67
2023/10/13 00:58:46;;;;;;;24.00;10.50;;;;;;;14.66;100.00;100612.59;6123238;28;20135;-68
2023/10/13 01:01:45;;;;;;;23.95;11.02;;;;;;;14.62;100.00;100605.97;6119700;28;20033;-68
2023/10/13 01:04:40;;;;;;;25.17;11.40;;;;;;;14.66;100.00;100605.41;6124339;28;20159;-67
2023/10/13 01:07:38;;;;;;;23.17;10.63;;;;;;;14.68;100.00;100607.91;6123585;28;20037;-67
2023/10/13 01:10:37;;;;;;;22.40;10.27;;;;;;;14.74;100.00;100604.53;6123644;28;20047;-66
2023/10/13 01:13:35;;;;;;;20.70;9.98;;;;;;;14.73;100.00;100598.34;6123703;28;20037;-67
2023/10/13 01:16:31;;;;;;;23.77;10.07;;;;;;;14.68;100.00;100587.38;6118105;28;20399;-68
2023/10/13 01:19:27;;;;;;;18.90;8.55;;;;;;;14.74;100.00;100593.88;6123136;28;20048;-67
2023/10/13 01:22:23;;;;;;;20.83;10.38;;;;;;;14.78;100.00;100598.66;6124082;28;20028;-67
2023/10/13 01:25:19;;;;;;;18.42;9.52;;;;;;;14.80;100.00;100603.84;6123299;28;20086;-68
2023/10/13 01:28:15;;;;;;;17.08;8.57;;;;;;;14.74;100.00;100600.03;6121133;28;20094;-67
2023/10/13 01:31:24;;;;;;;19.80;7.78;;;;;;;14.78;100.00;100589.84;6123472;28;20044;-67
2023/10/13 01:34:22;;;;;;;16.98;8.77;;;;;;;14.88;100.00;100595.78;6116704;28;20119;-67
2023/10/13 01:37:19;;;;;;;17.60;9.25;;;;;;;14.78;100.00;100595.19;6122409;28;20071;-68
2023/10/13 01:40:18;;;;;;;17.88;8.65;;;;;;;14.77;100.00;100591.69;6123129;28;20035;-66
2023/10/13 01:43:14;;;;;;;16.77;9.52;;;;;;;14.83;100.00;100582.97;6123341;28;20152;-67
2023/10/13 01:46:13;;;;;;;20.30;9.73;;;;;;;14.87;100.00;100586.09;6122484;28;20049;-66
2023/10/13 01:49:08;;;;;;;18.42;9.40;;;;;;;14.87;100.00;100583.44;6120998;28;20033;-68
2023/10/13 01:52:04;;;;;;;17.63;8.20;;;;;;;14.87;100.00;100588.78;6123095;28;20090;-66
2023/10/13 01:55:01;;;;;;;18.90;9.52;;;;;;;14.87;100.00;100576.25;6122939;28;20033;-67
2023/10/13 01:57:56;;;;;;;20.40;9.57;;;;;;;14.90;100.00;100580.41;6122856;28;20056;-65
2023/10/13 02:00:51;;;;;;;20.23;10.10;;;;;;;14.87;100.00;100568.25;6122529;28;20036;-66
2023/10/13 02:03:48;;;;;;;23.10;9.80;;;;;;;14.93;100.00;100576.56;6122550;28;20055;-65
2023/10/13 02:06:44;;;;;;;18.50;8.60;;;;;;;14.86;100.00;100560.44;6122290;28;20396;-66
2023/10/13 02:09:39;;;;;;;22.73;8.65;;;;;;;14.87;100.00;100559.41;6126165;28;20028;-66
2023/10/13 02:12:42;;;;;;;19.60;7.63;;;;;;;14.94;100.00;100564.88;6121960;28;20036;-66
2023/10/13 02:15:38;;;;;;;15.27;7.65;;;;;;;14.88;100.00;100571.75;6122696;28;20259;-66
2023/10/13 02:18:41;;;;;;;21.40;8.38;;;;;;;14.82;100.00;100569.78;6122362;28;20111;-67
2023/10/13 02:21:39;;;;;;;15.95;8.10;;;;;;;14.73;100.00;100557.50;6122303;28;20441;-66
2023/10/13 02:24:39;;;;;;;15.02;8.18;;;;;;;14.82;100.00;100564.44;6122176;28;20024;-67
2023/10/13 02:27:41;;;;;;;;;;;;;;;14.81;100.00;100557.47;6122336;28;20036;-67
2023/10/13 02:30:48;;;;;;;16.13;7.13;;;;;;;14.82;100.00;100559.09;6121713;28;19927;-67
2023/10/13 02:33:44;;;;;;;16.73;7.22;;;;;;;14.77;100.00;100550.78;6104459;28;20074;-67
2023/10/13 02:36:48;;;;;;;22.95;8.57;;;;;;;14.64;100.00;100530.03;6119767;28;20039;-67
2023/10/13 02:39:43;;;;;;;18.45;9.10;;;;;;;14.64;100.00;100531.88;6118259;28;20035;-66
2023/10/13 02:42:39;;;;;;;17.73;8.70;;;;;;;14.66;100.00;100537.84;6121908;28;20391;-67
2023/10/13 02:45:37;;;;;;;15.67;7.77;;;;;;;14.55;100.00;100530.25;6121516;28;20059;-66
2023/10/13 02:48:42;;;;;;;18.20;7.75;;;;;;;14.58;100.00;100535.25;6121149;28;20584;-65
2023/10/13 02:51:37;;;;;;;14.60;7.38;;;;;;;14.66;100.00;100525.34;6121120;28;20126;-67
2023/10/13 02:54:39;;;;;;;18.30;7.90;;;;;;;14.67;100.00;100513.69;6121707;28;20016;-67
2023/10/13 02:57:34;;;;;;;19.13;7.82;;;;;;;14.61;100.00;100513.53;6121503;28;20040;-66
2023/10/13 03:00:31;;;;;;;17.77;7.43;;;;;;;14.72;100.00;100521.13;6121295;28;20502;-67
2023/10/13 03:03:29;;;;;;;17.58;7.72;;;;;;;14.66;100.00;100500.50;6121277;28;20379;-65
2023/10/13 03:06:34;;;;;;;16.92;9.45;;;;;;;14.69;100.00;100510.81;6121548;28;20028;-66
2023/10/13 03:09:29;;;;;;;15.80;7.43;;;;;;;14.72;100.00;100507.78;6120683;28;20034;-68
2023/10/13 03:12:25;;;;;;;14.73;7.67;;;;;;;14.80;100.00;100507.72;6121135;28;20032;-66
2023/10/13 03:15:28;;;;;;;17.77;8.38;;;;;;;14.80;100.00;100507.72;6121613;28;20078;-66
2023/10/13 03:18:24;;;;;;;12.00;6.30;;;;;;;14.76;100.00;100495.72;6121026;28;20513;-67
2023/10/13 03:21:30;;;;;;;14.70;7.22;;;;;;;14.82;100.00;100503.03;6120941;28;20024;-67
2023/10/13 03:24:35;;;;;;;16.52;7.10;;;;;;;14.85;100.00;100489.34;6120326;28;20111;-66
2023/10/13 03:30:55;;;;;;;12.85;6.72;;;;;;;14.83;100.00;100486.84;6094446;28;20095;-67
2023/10/13 03:33:56;;;;;;;13.07;6.45;;;;;;;14.83;100.00;100470.00;6120541;28;20460;-66
2023/10/13 03:36:58;;;;;;;18.50;7.43;;;;;;;14.82;100.00;100471.00;6120116;28;20036;-66
2023/10/13 03:39:53;;;;;;;13.50;7.43;;;;;;;14.79;100.00;100469.53;6120958;28;20064;-67
2023/10/13 03:43:12;;;;;;;13.30;5.90;;;;;;;14.87;100.00;100477.47;6120092;28;20048;-66
2023/10/13 03:46:09;;;;;;;12.35;5.95;;;;;;;14.88;100.00;100478.31;6121184;28;20129;-66
2023/10/13 03:49:06;;;;;;;13.75;6.78;;;;;;;14.79;100.00;100464.19;6120452;28;20031;-67
2023/10/13 03:52:02;;;;;;;12.15;6.10;;;;;;;14.79;100.00;100450.84;6120758;28;20024;-68
2023/10/13 03:54:58;;;;;;;12.05;5.68;;;;;;;14.87;100.00;100461.44;6118798;28;20403;-67
2023/10/13 03:57:54;;;;;;;13.65;5.95;;;;;;;14.83;100.00;100452.16;6120651;28;20142;-67
2023/10/13 04:00:49;;;;;;;11.00;5.80;;;;;;;14.78;100.00;100440.34;6119553;28;20435;-66
2023/10/13 04:04:03;;;;;;;12.40;5.35;;;;;;;14.88;100.00;100451.59;6114824;28;20036;-66
2023/10/13 04:16:38;;;;;;;9.70;5.00;;;;;;;14.85;100.00;100435.94;6114486;28;20032;-67
2023/10/13 04:20:11;;;;;;;9.85;5.43;;;;;;;14.91;100.00;100440.56;6123611;28;20032;-66
2023/10/13 04:28:50;;;;;;;12.20;6.07;;;;;;;14.90;100.00;100415.69;6120594;28;20587;-67
2023/10/13 04:31:55;;;;;;;12.40;5.15;;;;;;;14.95;100.00;100425.81;6120340;28;20037;-65
2023/10/13 04:34:56;;;;;;;13.40;5.40;;;;;;;14.96;100.00;100416.81;6120012;28;20032;-66
2023/10/13 04:38:10;;;;;;;10.57;5.63;;;;;;;14.88;100.00;100409.72;6123726;28;20490;-68
2023/10/13 04:41:22;;;;;;;11.57;5.22;;;;;;;14.88;100.00;100407.03;6124583;28;20079;-68
2023/10/13 04:47:41;;;;;;;11.10;5.80;;;;;;;14.92;100.00;100410.16;6124824;28;20467;-67
2023/10/13 04:50:44;;;;;;;13.23;5.68;;;;;;;14.81;100.00;100381.25;6124062;28;20039;-65
2023/10/13 04:56:59;;;;;;;12.32;5.95;;;;;;;14.76;100.00;100378.28;6120990;28;20029;-67
2023/10/13 05:45:24;;;;;;;14.15;6.82;;;;;;;15.29;100.00;100353.19;6124332;28;20032;-66
2023/10/13 05:48:34;;;;;;;19.45;7.63;;;;;;;15.38;100.00;100354.75;6139610;28;20028;-66
2023/10/13 05:51:43;;;;;;;13.95;6.75;;;;;;;15.35;100.00;100337.25;6121761;28;20024;-66
2023/10/13 06:30:24;;;;;;;15.50;6.55;;;;;;;15.78;100.00;100326.69;6125220;28;20037;-70
2023/10/13 06:33:21;;;;;;;13.07;7.43;;;;;;;15.82;100.00;100338.66;6126280;28;20480;-71
2023/10/13 06:36:17;;;;;;;14.23;6.57;;;;;;;15.81;100.00;100326.31;6127211;28;20031;-70
2023/10/13 06:42:27;;;;;;;15.70;8.95;;;;;;;15.74;100.00;100330.75;6125127;28;20040;-71
2023/10/13 06:45:22;;;;;;;14.23;6.95;;;;;;;15.72;100.00;100316.75;6123869;28;21849;-69
2023/10/13 06:48:19;;;;;;;15.00;7.30;;;;;;;15.76;100.00;100323.38;6133621;28;20040;-71
2023/10/13 06:51:18;;;;;;;16.30;9.23;;;;;;;15.57;100.00;100297.25;6127028;28;20464;-70
2023/10/13 06:54:19;;;;;;;22.77;8.80;;;;;;;15.81;100.00;100315.63;6125111;28;20028;-69
2023/10/13 06:57:20;;;;;;;15.32;7.65;;;;;;;15.80;100.00;100313.94;6128438;28;20059;-69
2023/10/13 07:00:29;;;;;;;18.83;8.63;;;;;;;15.79;100.00;100285.56;6125544;28;20028;-69
2023/10/13 07:03:25;;;;;;;17.45;8.90;;;;;;;15.86;100.00;100295.31;6120989;28;20032;-71
2023/10/13 07:06:20;;;;;;;14.70;7.80;;;;;;;15.90;100.00;100301.09;6125633;28;20028;-70
2023/10/13 07:09:39;;;;;;;15.05;7.50;;;;;;;15.98;100.00;100317.84;6124908;28;20440;-71
2023/10/13 07:12:34;;;;;;;16.70;7.55;;;;;;;15.96;100.00;100292.31;6120748;28;20490;-70
2023/10/13 07:15:29;;;;;;;15.97;7.90;;;;;;;15.99;100.00;100298.13;6126565;28;20032;-72
2023/10/13 07:18:25;;;;;;;13.10;7.47;;;;;;;16.00;100.00;100289.09;6129279;28;20032;-72
2023/10/13 07:21:32;;;;;;;12.93;7.35;;;;;;;15.94;100.00;100273.78;6121058;28;20025;-70
2023/10/13 07:24:39;;;;;;;15.98;8.23;;;;;;;16.07;100.00;100278.41;6118915;28;20032;-69
2023/10/13 07:27:35;;;;;;;18.38;8.02;;;;;;;16.09;100.00;100265.69;6128464;28;20036;-69
2023/10/13 07:30:39;;;;;;;16.10;7.90;;;;;;;16.15;100.00;100275.63;6127422;28;20121;-71
2023/10/13 07:33:34;;;;;;;13.13;7.93;;;;;;;16.18;100.00;100269.88;6120520;28;20506;-72
2023/10/13 07:36:34;;;;;;;17.60;7.10;;;;;;;16.10;100.00;100253.97;6118036;28;20033;-74
2023/10/13 07:39:34;;;;;;;16.55;8.32;;;;;;;16.19;100.00;100271.53;6125650;28;20029;-73
2023/10/13 07:42:38;;;;;;;19.15;8.40;;;;;;;16.17;100.00;100273.56;6132160;28;20020;-73
2023/10/13 07:45:36;;;;;;;13.20;7.60;;;;;;;16.03;100.00;100245.88;6117335;28;20040;-70
2023/10/13 07:48:33;;;;;;;15.23;7.57;;;;;;;16.17;100.00;100254.03;6125986;28;20114;-72
2023/10/13 07:51:32;;;;;;;16.80;7.60;;;;;;;16.17;100.00;100246.00;6123527;28;20051;-72
2023/10/13 07:54:28;;;;;;;13.32;7.78;;;;;;;16.19;100.00;100239.44;6116164;28;20024;-71
2023/10/13 07:57:29;;;;;;;18.08;8.63;;;;;;;16.26;100.00;100236.78;6125451;28;20447;-71
2023/10/13 08:03:44;;;;;;;16.98;8.07;;;;;;;16.35;100.00;100222.25;6118396;28;20028;-74
2023/10/13 08:06:41;;;;;;;15.60;8.40;;;;;;;16.30;100.00;100198.78;6127613;28;20095;-74
2023/10/13 08:09:40;;;;;;;16.15;6.95;;;;;;;16.35;100.00;100200.84;6124641;28;20187;-72
2023/10/13 08:12:37;;;;;;;14.80;7.50;;;;;;;16.44;100.00;100205.03;6120792;28;20037;-73
2023/10/13 08:15:32;;;;;;;14.35;6.22;;;;;;;16.49;100.00;100208.78;6127266;28;20033;-72
2023/10/13 08:18:30;;;;;;;15.73;6.80;;;;;;;16.54;100.00;100210.88;6130661;28;20043;-71
2023/10/13 08:21:31;;;;;;;15.43;6.65;;;;;;;16.59;100.00;100203.91;6112401;28;20111;-71
2023/10/13 08:31:22;;;;;;;12.80;5.40;;;;;;;16.80;100.00;100188.78;6125202;28;20468;-70
2023/10/13 08:34:23;;;;;;;11.07;5.13;;;;;;;16.92;100.00;100184.50;6120780;28;20029;-70
2023/10/13 08:47:06;;;;;;;9.75;4.53;;;;;;;17.13;100.00;100176.34;6111417;28;20049;-70
2023/10/13 08:50:31;;;;;;;6.82;4.15;;;;;;;17.15;100.00;100169.75;6111400;28;20029;-69
2023/10/13 08:53:31;;;;;;;9.10;3.63;;;;;;;17.33;100.00;100181.75;6120898;28;20051;-68
2023/10/13 08:56:46;;;;;;;6.07;3.83;;;;;;;17.39;100.00;100179.09;6131220;28;20442;-68
2023/10/13 08:59:52;;;;;;;7.55;3.65;;;;;;;17.40;100.00;100161.13;6120011;28;20043;-69
2023/10/13 09:03:26;;;;;;;8.60;4.07;;;;;;;17.44;100.00;100175.81;6121943;28;20032;-70
2023/10/13 09:06:19;;;;;;;8.98;2.97;;;;;;;17.45;100.00;100175.59;6123982;28;20025;-70
2023/10/13 09:09:27;;;;;;;6.63;3.20;;;;;;;17.41;100.00;100177.03;6124123;28;20035;-71
2023/10/13 09:12:35;;;;;;;5.95;3.10;;;;;;;17.37;100.00;100167.72;6121334;28;20043;-71
2023/10/13 09:18:47;;;;;;;10.82;3.40;;;;;;;17.47;100.00;100175.41;6126003;28;20123;-71
2023/10/13 09:24:38;;;;;;;7.07;3.00;;;;;;;17.59;100.00;100177.28;6127583;28;20064;-69
2023/10/13 09:27:37;;;;;;;8.37;3.70;;;;;;;17.60;100.00;100168.22;6127088;28;20032;-70
2023/10/13 09:30:32;;;;;;;5.68;3.00;;;;;;;17.75;100.00;100170.69;6123603;28;20043;-71
2023/10/13 09:33:50;;;;;;;6.03;2.93;;;;;;;17.89;100.00;100171.53;6110236;28;20032;-71
2023/10/13 09:36:47;;;;;;;6.13;3.00;;;;;;;18.00;100.00;100161.00;6123331;28;20476;-69
2023/10/13 09:39:52;;;;;;;6.78;3.15;;;;;;;18.11;100.00;100151.50;6112785;28;20050;-69
2023/10/13 09:42:47;;;;;;;7.32;3.10;;;;;;;18.34;100.00;100147.31;6120807;28;20033;-69
2023/10/13 09:46:01;;;;;;;5.97;2.63;;;;;;;18.58;100.00;100153.91;6132021;28;20067;-71
2023/10/13 09:49:07;;;;;;;7.15;3.22;;;;;;;18.50;100.00;100135.34;6112580;28;20067;-68
2023/10/13 09:52:07;;;;;;;5.55;3.03;;;;;;;18.58;100.00;100126.22;6102248;28;20048;-68
2023/10/13 09:55:13;;;;;;;7.13;3.05;;;;;;;18.59;100.00;100139.44;6131381;28;20052;-69
2023/10/13 09:58:10;;;;;;;6.85;2.72;;;;;;;18.72;100.00;100128.66;6104393;28;20032;-68
2023/10/13 10:01:09;;;;;;;5.03;2.72;;;;;;;18.61;100.00;100109.69;6104738;28;20025;-67
2023/10/13 10:04:09;;;;;;;9.52;3.38;;;;;;;18.77;100.00;100111.91;6122922;28;20078;-70
2023/10/13 10:07:04;;;;;;;10.95;3.58;;;;;;;18.94;100.00;100105.78;6123889;28;20090;-67
2023/10/13 10:10:01;;;;;;;8.15;3.83;;;;;;;19.17;100.00;100101.75;6122308;28;20549;-67
2023/10/13 10:13:02;;;;;;;9.02;2.80;;;;;;;19.23;100.00;100092.81;6119842;28;20480;-68
2023/10/13 10:16:00;;;;;;;7.40;3.30;;;;;;;19.17;100.00;100073.00;6110871;28;20036;-68
2023/10/13 10:19:02;;;;;;;9.02;3.30;;;;;;;19.22;100.00;100066.97;6109821;28;20036;-68
2023/10/13 10:22:05;;;;;;;7.65;3.13;;;;;;;19.49;100.00;100081.88;6119537;28;20028;-67
2023/10/13 10:25:06;;;;;;;10.80;3.40;;;;;;;19.44;100.00;100061.03;6124081;28;20059;-69
2023/10/13 10:28:07;;;;;;;8.52;3.60;;;;;;;19.48;100.00;100061.44;6119976;28;20047;-68
2023/10/13 10:31:17;;;;;;;8.52;3.10;;;;;;;19.37;100.00;100040.59;6126478;28;20039;-68
2023/10/13 10:34:13;;;;;;;11.05;4.32;;;;;;;19.59;100.00;100028.44;6118433;28;20391;-68
2023/10/13 10:37:09;;;;;;;6.50;3.13;;;;;;;19.78;100.00;100032.81;6129037;28;20036;-69
2023/10/13 10:40:08;;;;;;;10.07;3.55;;;;;;;19.82;100.00;100020.53;6122516;28;20040;-68
2023/10/13 10:43:08;;;;;;;6.25;3.22;;;;;;;19.89;100.00;100007.84;6125764;28;20472;-67
2023/10/13 10:46:05;;;;;;;10.60;4.05;;;;;;;19.90;100.00;100017.56;6124791;28;20035;-68
2023/10/13 10:49:04;;;;;;;8.50;3.30;;;;;;;19.83;100.00;100003.34;6117513;28;20028;-69
2023/10/13 10:52:06;;;;;;;7.95;3.05;;;;;;;19.86;100.00;99981.38;6120298;28;20048;-68
2023/10/13 10:55:02;;;;;;;6.85;3.22;;;;;;;20.00;100.00;100001.69;6121148;28;20032;-67
2023/10/13 10:58:23;;;;;;;11.00;3.58;;;;;;;20.08;100.00;99990.63;6113359;28;20086;-67
2023/10/13 11:01:21;;;;;;;8.25;3.03;;;;;;;20.10;100.00;99988.56;6121241;28;20033;-68
2023/10/13 11:04:18;;;;;;;8.88;3.85;;;;;;;20.19;100.00;99975.59;6115517;28;20052;-68
2023/10/13 11:07:23;;;;;;;10.30;3.40;;;;;;;20.14;100.00;99981.66;6118772;28;20081;-67
2023/10/13 11:10:29;;;;;;;9.52;3.78;;;;;;;20.02;100.00;99953.03;6122658;28;20380;-68
2023/10/13 11:13:30;;;;;;;9.93;3.40;;;;;;;20.30;100.00;99960.59;6117023;28;20032;-67
2023/10/13 11:16:33;;;;;;;7.00;3.15;;;;;;;20.44;100.00;99954.78;6120456;28;20024;-68
2023/10/13 11:19:36;;;;;;;8.52;3.30;;;;;;;20.40;100.00;99945.50;6128585;28;20413;-68
2023/10/13 11:22:37;;;;;;;9.13;3.15;;;;;;;20.37;100.00;99947.84;6114615;28;20020;-68
2023/10/13 11:25:35;;;;;;;8.25;3.22;;;;;;;20.46;100.00;99947.31;6129543;28;20024;-67
2023/10/13 11:28:34;;;;;;;8.57;3.42;;;;;;;20.48;100.00;99938.97;6125452;28;20446;-68
2023/10/13 11:31:29;;;;;;;10.35;3.50;;;;;;;20.58;100.00;99920.38;6121000;28;20063;-66
2023/10/13 11:34:25;;;;;;;9.18;3.80;;;;;;;20.66;100.00;99949.69;6126641;28;20028;-68
2023/10/13 11:37:38;;;;;;;12.98;3.50;;;;;;;20.72;100.00;99948.78;6120731;28;20024;-67
2023/10/13 11:41:06;;;;;;;8.23;3.58;;;;;;;21.14;100.00;99946.91;6126600;28;20120;-68
2023/10/13 11:47:47;;;;;;;14.40;3.38;;;;;;;21.35;100.00;99941.75;6134210;28;20783;-68
2023/10/13 11:50:46;;;;;;;9.45;3.38;;;;;;;21.45;100.00;99934.91;6123994;28;20067;-67
2023/10/13 11:53:41;;;;;;;9.73;3.33;;;;;;;21.55;100.00;99929.78;6131724;28;20386;-67
2023/10/13 11:56:38;;;;;;;11.53;3.40;;;;;;;21.63;100.00;99934.81;6127605;28;20040;-67
2023/10/13 12:12:53;;;;;;;13.60;3.47;;;;;;;22.44;99.38;99888.66;6118478;28;20036;-69
2023/10/13 12:15:48;;;;;;;10.25;3.17;;;;;;;22.72;92.59;99887.81;6132697;28;20541;-68
2023/10/13 12:18:45;;;;;;;11.20;3.13;;;;;;;22.83;90.78;99890.41;6124810;28;20040;-68
2023/10/13 12:21:43;;;;;;;14.15;3.70;;;;;;;22.67;92.46;99893.09;6127024;28;20036;-68
2023/10/13 12:24:42;;;;;;;12.65;3.75;;;;;;;22.62;89.57;99879.47;6135602;28;20033;-68
2023/10/13 12:27:48;;;;;;;10.90;3.70;;;;;;;22.81;86.94;99880.91;6136699;28;20391;-67
2023/10/13 12:30:53;;;;;;;12.18;3.83;;;;;;;22.80;88.45;99873.88;6116366;28;20500;-67
2023/10/13 12:33:48;;;;;;;13.25;4.18;;;;;;;22.88;84.96;99870.75;6138546;28;20032;-67
2023/10/13 12:36:53;;;;;;;13.80;3.53;;;;;;;22.64;86.96;99831.44;6124262;28;20392;-67
2023/10/13 12:52:45;;;;;;;8.93;3.28;;;;;;;22.38;84.59;99847.19;6133814;28;20043;-67
2023/10/13 12:55:40;;;;;;;13.65;3.70;;;;;;;22.36;84.31;99849.34;6137479;28;20404;-67
2023/10/13 12:58:36;;;;;;;13.32;3.50;;;;;;;22.38;84.78;99849.06;6133902;28;20035;-67
2023/10/13 13:01:34;;;;;;;12.33;3.33;;;;;;;22.38;84.24;99822.88;6126042;28;20038;-69
2023/10/13 13:04:36;;;;;;;9.10;3.28;;;;;;;22.45;83.13;99841.63;6129519;28;20115;-67
2023/10/13 13:07:42;;;;;;;11.02;3.60;;;;;;;22.51;82.20;99846.06;6131701;28;20039;-68
2023/10/13 13:10:38;;;;;;;13.25;3.50;;;;;;;22.69;81.89;99843.16;6131057;28;20040;-68
2023/10/13 13:13:34;;;;;;;9.13;3.45;;;;;;;22.74;79.94;99808.09;6129516;28;20691;-67
2023/10/13 13:16:30;;;;;;;6.43;3.27;;;;;;;22.83;80.32;99811.19;6130044;28;20103;-67
2023/10/13 13:19:25;;;;;;;9.48;3.60;;;;;;;23.02;82.51;99809.81;6125812;28;20686;-68
2023/10/13 13:22:21;;;;;;;12.77;3.60;;;;;;;22.99;79.71;99810.34;6131753;28;20047;-67
2023/10/13 13:25:18;;;;;;;9.75;3.53;;;;;;;22.97;78.19;99815.16;6130412;28;20075;-68
2023/10/13 13:28:15;;;;;;;10.48;3.47;;;;;;;22.86;78.83;99810.69;6133086;28;20056;-67
2023/10/13 13:31:12;;;;;;;12.93;4.03;;;;;;;23.12;78.77;99807.28;6130563;28;20016;-68
2023/10/13 13:34:12;;;;;;;16.67;3.58;;;;;;;23.22;79.46;99796.59;6122906;28;20040;-68
2023/10/13 13:37:12;;;;;;;9.07;4.05;;;;;;;23.11;80.49;99797.53;6120897;28;20047;-67
2023/10/13 13:40:14;;;;;;;12.70;3.50;;;;;;;22.81;83.50;99800.63;6120982;28;20111;-67
2023/10/13 13:43:18;;;;;;;11.00;3.40;;;;;;;22.81;82.44;99791.69;6125894;28;20399;-70
2023/10/13 13:46:17;;;;;;;10.02;3.75;;;;;;;22.81;82.53;99783.56;6123457;28;20028;-69
2023/10/13 13:49:18;;;;;;;10.40;3.42;;;;;;;22.87;81.40;99774.47;6122917;28;20094;-68
2023/10/13 13:52:17;;;;;;;12.18;4.05;;;;;;;22.91;80.64;99775.63;6122652;28;20075;-68
2023/10/13 13:55:17;;;;;;;11.88;4.45;;;;;;;22.85;81.86;99763.09;6112503;28;20036;-69
2023/10/13 13:58:13;;;;;;;11.60;4.43;;;;;;;22.85;80.78;99745.00;6089133;28;20040;-67
2023/10/13 14:01:15;;;;;;;15.68;4.40;;;;;;;22.82;81.03;99741.94;6120823;28;21018;-66
2023/10/13 14:04:17;;;;;;;15.65;4.75;;;;;;;22.84;80.80;99747.91;6101047;28;20059;-67
2023/10/13 14:07:24;;;;;;;8.88;3.67;;;;;;;22.67;81.28;99749.81;6119149;28;20554;-67
2023/10/13 14:10:31;;;;;;;12.27;3.65;;;;;;;22.53;82.58;99727.69;6122214;28;20036;-68
2023/10/13 14:16:47;;;;;;;10.98;3.67;;;;;;;22.64;81.98;99744.94;6126104;28;20443;-68
2023/10/13 14:19:45;;;;;;;12.60;3.85;;;;;;;22.70;82.95;99741.22;6120452;28;20078;-68
2023/10/13 14:22:41;;;;;;;12.93;3.70;;;;;;;22.87;80.93;99721.22;6121750;28;20047;-68
2023/10/13 14:25:37;;;;;;;11.95;3.65;;;;;;;22.86;79.68;99721.44;6127433;28;20041;-68
2023/10/13 14:28:34;;;;;;;11.55;3.45;;;;;;;22.76;81.10;99713.19;6128209;28;20028;-68
2023/10/13 14:31:30;;;;;;;7.82;3.42;;;;;;;22.79;81.20;99732.47;6127028;28;20024;-68
2023/10/13 14:34:26;;;;;;;11.95;4.30;;;;;;;22.73;79.71;99729.91;6108836;28;20433;-68
2023/10/13 14:37:29;;;;;;;10.23;3.78;;;;;;;22.57;80.42;99709.13;6116270;28;20032;-67
2023/10/13 14:40:25;;;;;;;11.55;4.47;;;;;;;22.64;80.30;99720.63;6118982;28;20031;-67
2023/10/13 14:43:21;;;;;;;12.93;3.67;;;;;;;22.48;80.86;99723.06;6125059;28;20032;-68
2023/10/13 14:46:17;;;;;;;12.15;3.50;;;;;;;22.43;80.50;99706.75;6128716;28;20119;-68
2023/10/13 14:49:18;;;;;;;10.00;4.10;;;;;;;22.40;81.05;99715.38;6126671;28;20025;-68
2023/10/13 14:52:13;;;;;;;8.55;3.90;;;;;;;22.36;79.86;99708.00;6125680;28;20090;-68
2023/10/13 14:55:18;;;;;;;16.57;4.87;;;;;;;22.29;80.45;99702.75;6126322;28;20060;-68
2023/10/13 14:58:16;;;;;;;13.98;3.47;;;;;;;22.39;78.93;99692.09;6116673;28;20271;-68
2023/10/13 15:01:19;;;;;;;9.93;3.72;;;;;;;22.21;78.96;99697.78;6117316;28;20369;-68
2023/10/13 15:04:14;;;;;;;12.00;4.10;;;;;;;22.29;78.54;99697.34;6118062;28;20029;-68
2023/10/13 15:07:09;;;;;;;10.93;4.37;;;;;;;22.25;79.11;99709.75;6125236;28;20052;-67
2023/10/13 15:10:05;;;;;;;9.67;3.40;;;;;;;22.15;80.30;99701.44;6123119;28;20364;-68
2023/10/13 15:13:01;;;;;;;15.73;3.75;;;;;;;22.11;79.08;99697.63;6125597;28;20116;-68
2023/10/13 15:15:57;;;;;;;12.05;4.03;;;;;;;21.97;80.24;99682.81;6131914;28;20032;-67
2023/10/13 15:18:53;;;;;;;14.43;3.92;;;;;;;21.93;81.17;99687.88;6118682;28;20044;-68
2023/10/13 15:21:50;;;;;;;11.30;3.80;;;;;;;21.90;81.31;99696.44;6119852;28;20032;-67
2023/10/13 15:24:57;;;;;;;10.65;3.53;;;;;;;21.91;81.02;99692.69;6120629;28;20084;-67
2023/10/13 15:27:55;;;;;;;11.07;4.00;;;;;;;21.77;81.31;99682.41;6126987;28;20060;-68
2023/10/13 15:31:09;;;;;;;11.13;4.32;;;;;;;21.66;82.64;99691.44;6120226;28;20039;-66
2023/10/13 15:34:17;;;;;;;9.75;3.65;;;;;;;21.66;83.52;99703.03;6121311;28;20036;-67
2023/10/13 15:37:12;;;;;;;11.63;3.75;;;;;;;21.73;82.53;99697.47;6114421;28;20155;-67
2023/10/13 15:40:15;;;;;;;9.77;3.87;;;;;;;21.66;82.82;99708.41;6120866;28;20036;-67
2023/10/13 15:43:12;;;;;;;15.25;4.13;;;;;;;21.60;84.20;99692.38;6120435;28;20275;-67
2023/10/13 15:46:15;;;;;;;11.88;4.32;;;;;;;21.52;84.42;99682.81;6121396;28;20119;-67
2023/10/13 15:49:12;;;;;;;9.85;4.03;;;;;;;21.56;84.79;99718.22;6120284;28;20051;-67
2023/10/13 15:52:09;;;;;;;12.15;4.20;;;;;;;21.27;85.05;99671.53;6119667;28;20120;-67
2023/10/13 15:55:07;;;;;;;13.00;4.32;;;;;;;21.45;85.74;99701.00;6121364;28;20029;-68
2023/10/13 15:58:07;;;;;;;9.77;3.92;;;;;;;21.36;87.56;99708.66;6116852;28;20094;-66
2023/10/13 16:01:02;;;;;;;10.43;3.85;;;;;;;21.36;85.96;99697.88;6118461;28;20052;-67
2023/10/13 16:03:57;;;;;;;12.20;4.57;;;;;;;21.36;85.84;99689.78;6119848;28;20098;-67
2023/10/13 16:06:53;;;;;;;11.97;4.47;;;;;;;21.46;85.92;99702.66;6120166;28;20044;-68
2023/10/13 16:09:57;;;;;;;10.60;4.07;;;;;;;21.48;86.06;99708.63;6119869;28;20037;-67
2023/10/13 16:12:53;;;;;;;11.77;3.90;;;;;;;21.38;86.04;99696.84;6116121;28;20360;-67
2023/10/13 16:15:48;;;;;;;10.40;3.90;;;;;;;21.42;85.86;99711.47;6120868;28;20478;-67
2023/10/13 16:18:44;;;;;;;10.27;3.83;;;;;;;21.27;87.59;99714.69;6119353;28;20048;-68
2023/10/13 16:21:39;;;;;;;10.57;3.75;;;;;;;21.10;88.62;99698.44;6121431;28;20032;-67
2023/10/13 16:24:35;;;;;;;9.63;4.30;;;;;;;21.05;90.45;99714.50;6116959;28;20055;-67
2023/10/13 16:27:30;;;;;;;10.48;4.32;;;;;;;20.91;91.25;99710.44;6115389;28;20040;-68
2023/10/13 16:30:28;;;;;;;13.03;3.40;;;;;;;20.87;92.03;99703.06;6119031;28;20032;-68
2023/10/13 16:33:23;;;;;;;10.38;4.07;;;;;;;20.87;92.25;99709.28;6117638;28;20029;-67
2023/10/13 16:36:21;;;;;;;14.20;4.27;;;;;;;20.83;93.13;99708.09;6124148;28;20094;-68
2023/10/13 16:39:22;;;;;;;9.23;4.30;;;;;;;20.76;93.03;99702.81;6120262;28;20510;-68
2023/10/13 16:42:17;;;;;;;11.35;4.05;;;;;;;20.68;93.40;99705.09;6124476;28;20041;-67